This is the latest recevied weather packets stored in our database for station/object 7L2IWN-13. If no packets are shown the sender has not sent any weather packets the latest 10 day(s).
| Time | Temp. | Humidity | Pressure | Rain* | Wind** | Luminosity | Snow |
|---|---|---|---|---|---|---|---|
| 1777908617 | 13.33° C | 55% | 1011.1 hPa | 0 mm | - | - | - |
| 1777907897 | 13.89° C | 55% | 1011 hPa | 0 mm | - | - | - |
| 1777907177 | 13.89° C | 56% | 1010.3 hPa | 0 mm | - | - | - |
| 1777905737 | 14.44° C | 56% | 1009.6 hPa | 0 mm | - | - | - |
| 1777905017 | 14.44° C | 57% | 1009.5 hPa | 0 mm | - | - | - |
| 1777904298 | 14.44° C | 57% | 1008.9 hPa | 0 mm | - | - | - |
| 1777903577 | 15° C | 58% | 1008.9 hPa | 0 mm | - | - | - |
| 1777902858 | 12.78° C | 72% | 1008.6 hPa | 0 mm | - | - | - |
| 1777902136 | 13.33° C | 74% | 1008.3 hPa | 0 mm | - | - | - |
| 1777901418 | 13.33° C | 71% | 1007.8 hPa | 0 mm | - | - | - |
| 1777900698 | 12.78° C | 74% | 1007.5 hPa | 0 mm | - | - | - |
| 1777899978 | 13.33° C | 71% | 1007.4 hPa | 0 mm | - | - | - |
| 1777899257 | 13.33° C | 70% | 1006.9 hPa | 0 mm | - | - | - |
| 1777898538 | 13.89° C | 69% | 1006.7 hPa | 0 mm | - | - | - |
| 1777897818 | 15° C | 64% | 1006.5 hPa | 0 mm | - | - | - |
| 1777897098 | 14.44° C | 66% | 1006.3 hPa | 0 mm | - | - | - |
| 1777896377 | 14.44° C | 65% | 1005.8 hPa | 0 mm | - | - | - |
| 1777895658 | 15° C | 64% | 1005.4 hPa | 0 mm | - | - | - |
| 1777894217 | 15.56° C | 63% | 1004.6 hPa | 0 mm | - | - | - |
| 1777893498 | 16.11° C | 61% | 1004.1 hPa | 0 mm | - | - | - |
| 1777892777 | 18.33° C | 45% | 1003.6 hPa | 0 mm | - | - | - |
| 1777892060 | 18.33° C | 44% | 1003 hPa | 0 mm | - | - | - |
| 1777891337 | 18.89° C | 45% | 1002.6 hPa | 0 mm | - | - | - |
| 1777890617 | 18.89° C | 42% | 1002.3 hPa | 0 mm | - | - | - |
| 1777889898 | 19.44° C | 42% | 1002 hPa | 0 mm | - | - | - |
* Rain latest hour (hover to see other rain measurements)
** Current wind speed in m/s (hover to see current wind gust speed)